createdAt,value
2023-01-19T00:08:36.395Z,79.34
2023-01-19T00:18:39.465Z,79.82
2023-01-19T00:28:44.901Z,79.28
2023-01-19T00:38:49.602Z,79.97
2023-01-19T00:48:55.721Z,80.19
2023-01-19T00:58:59.078Z,80.22
2023-01-19T01:09:12.176Z,80.33
2023-01-19T01:19:16.010Z,80.30
2023-01-19T01:29:20.467Z,80.51
2023-01-19T01:39:23.439Z,80.82
2023-01-19T01:49:27.996Z,81.42
2023-01-19T01:59:40.054Z,80.76
2023-01-19T02:10:02.428Z,80.75
2023-01-19T02:20:06.418Z,80.45
2023-01-19T02:30:14.013Z,80.71
2023-01-19T02:40:20.975Z,81.10
2023-01-19T02:50:46.125Z,80.80
2023-01-19T03:00:57.386Z,80.32
2023-01-19T03:11:04.319Z,80.39
2023-01-19T03:21:13.258Z,81.26
2023-01-19T03:31:21.300Z,81.29
2023-01-19T03:41:27.398Z,81.39
2023-01-19T03:51:31.790Z,81.97
2023-01-19T04:01:35.100Z,81.82
2023-01-19T04:11:40.707Z,81.46
2023-01-19T04:21:43.701Z,81.81
2023-01-19T04:31:47.926Z,82.02
2023-01-19T04:41:53.003Z,81.75
2023-01-19T04:52:01.781Z,81.75
2023-01-19T05:02:06.128Z,80.86
2023-01-19T05:12:13.537Z,80.26
2023-01-19T05:22:17.231Z,79.89
2023-01-19T05:32:21.732Z,80.15
2023-01-19T05:42:25.076Z,79.65
2023-01-19T05:52:29.660Z,79.91
2023-01-19T06:02:32.933Z,79.45
2023-01-19T06:12:37.370Z,80.94
2023-01-19T06:22:40.289Z,81.86
2023-01-19T06:32:44.819Z,84.37
2023-01-19T06:42:49.739Z,88.74
2023-01-19T06:53:22.407Z,93.35
2023-01-19T07:03:29.227Z,96.97
2023-01-19T07:13:34.336Z,97.24
2023-01-19T07:23:39.007Z,98.17
2023-01-19T07:33:43.267Z,99.29
2023-01-19T07:43:46.305Z,99.59
2023-01-19T07:53:52.427Z,100.00
2023-01-19T08:03:55.603Z,100.00
2023-01-19T08:14:00.623Z,100.00
2023-01-19T08:24:04.377Z,100.00
2023-01-19T08:34:10.544Z,100.00
2023-01-19T08:44:15.862Z,100.00
2023-01-19T08:54:21.988Z,100.00
2023-01-19T09:04:25.817Z,100.00
2023-01-19T09:14:30.373Z,100.00
2023-01-19T09:24:35.443Z,100.00
2023-01-19T09:34:39.868Z,100.00
2023-01-19T09:44:46.091Z,100.00
2023-01-19T09:54:58.937Z,100.00
2023-01-19T10:05:27.955Z,100.00
2023-01-19T10:15:43.652Z,99.68
2023-01-19T10:25:48.421Z,99.10
2023-01-19T10:35:53.053Z,99.58
2023-01-19T10:46:32.486Z,99.59
2023-01-19T10:56:40.085Z,99.12
2023-01-19T11:06:44.335Z,98.98
2023-01-19T11:16:55.165Z,98.28
2023-01-19T11:27:03.200Z,97.91
2023-01-19T11:37:27.313Z,97.62
2023-01-19T11:47:36.885Z,96.48
2023-01-19T11:57:47.634Z,95.89
2023-01-19T12:07:52.114Z,95.72
2023-01-19T12:18:00.628Z,93.54
2023-01-19T12:28:05.161Z,91.21
2023-01-19T12:38:32.024Z,90.61
2023-01-19T12:48:35.784Z,89.93
2023-01-19T12:58:40.384Z,88.04
2023-01-19T13:09:01.431Z,86.98
2023-01-19T13:19:22.916Z,85.40
2023-01-19T13:29:31.153Z,87.00
2023-01-19T13:39:42.352Z,84.86
2023-01-19T13:50:23.944Z,83.61
2023-01-19T14:00:31.065Z,83.25
2023-01-19T14:10:36.501Z,83.70
2023-01-19T14:20:48.437Z,83.96
2023-01-19T14:30:55.780Z,83.41
2023-01-19T14:41:03.924Z,83.34
2023-01-19T14:51:09.346Z,83.89
2023-01-19T15:01:15.188Z,83.63
2023-01-19T15:11:27.857Z,83.36
2023-01-19T15:21:32.498Z,82.86
2023-01-19T15:31:37.209Z,82.82
2023-01-19T15:42:33.496Z,83.88
2023-01-19T15:52:39.093Z,82.45
2023-01-19T16:02:44.637Z,80.67
2023-01-19T16:12:49.256Z,80.46
2023-01-19T16:22:56.474Z,80.28
2023-01-19T16:33:00.365Z,80.89
2023-01-19T16:43:05.232Z,81.35
2023-01-19T16:53:08.374Z,81.39
2023-01-19T17:03:14.165Z,80.85
2023-01-19T17:13:17.464Z,80.89
2023-01-19T17:23:22.269Z,80.57
2023-01-19T17:33:25.659Z,81.11
2023-01-19T17:43:30.998Z,80.08
2023-01-19T17:53:54.837Z,80.05
2023-01-19T18:03:59.915Z,80.95
2023-01-19T18:14:03.510Z,80.71
2023-01-19T18:24:08.932Z,80.34
2023-01-19T18:34:11.932Z,80.76
2023-01-19T18:44:16.454Z,80.36
2023-01-19T18:54:21.044Z,80.00
2023-01-19T19:04:25.832Z,80.01
2023-01-19T19:14:29.073Z,80.31
2023-01-19T19:24:33.469Z,80.65
2023-01-19T19:34:36.824Z,80.83
2023-01-19T19:44:41.964Z,80.45
2023-01-19T19:54:45.668Z,79.55
2023-01-19T20:04:50.775Z,79.54
2023-01-19T20:15:24.961Z,81.72
2023-01-19T20:25:29.986Z,81.96
2023-01-19T20:35:33.894Z,82.91
2023-01-19T20:45:38.362Z,81.71
2023-01-19T20:55:42.469Z,82.31
2023-01-19T21:05:49.420Z,82.60
2023-01-19T21:15:52.620Z,82.94
2023-01-19T21:25:59.758Z,83.50
2023-01-19T21:36:03.416Z,83.46
2023-01-19T21:46:12.736Z,82.97
2023-01-19T21:56:17.314Z,83.37
2023-01-19T22:06:22.303Z,83.41
2023-01-19T22:16:26.958Z,82.64
2023-01-19T22:37:02.931Z,81.90
2023-01-19T22:47:07.425Z,81.71
2023-01-19T22:57:12.027Z,80.94
2023-01-19T23:07:16.450Z,80.91
2023-01-19T23:17:19.702Z,80.41
2023-01-19T23:27:24.119Z,80.26
2023-01-19T23:37:27.546Z,79.74
2023-01-19T23:47:31.832Z,79.95
2023-01-19T23:57:34.589Z,80.79
